sensor_id;sensor_type;location;lat;lon;timestamp;temperature;humidity
29403;DHT22;16382;59.942;30.472;2022-09-21T00:00:22;10.60;99.90
29403;DHT22;16382;59.942;30.472;2022-09-21T00:02:51;10.50;99.90
29403;DHT22;16382;59.942;30.472;2022-09-21T00:05:21;10.50;99.90
29403;DHT22;16382;59.942;30.472;2022-09-21T00:07:49;10.40;99.90
29403;DHT22;16382;59.942;30.472;2022-09-21T00:10:16;10.40;99.90
29403;DHT22;16382;59.942;30.472;2022-09-21T00:12:44;10.40;99.90
29403;DHT22;16382;59.942;30.472;2022-09-21T00:15:13;10.30;99.90
29403;DHT22;16382;59.942;30.472;2022-09-21T00:17:42;10.40;99.90
29403;DHT22;16382;59.942;30.472;2022-09-21T00:20:11;10.40;99.90
29403;DHT22;16382;59.942;30.472;2022-09-21T00:22:38;10.40;99.90
29403;DHT22;16382;59.942;30.472;2022-09-21T00:25:06;10.40;99.90
29403;DHT22;16382;59.942;30.472;2022-09-21T00:27:34;10.40;99.90
29403;DHT22;16382;59.942;30.472;2022-09-21T00:30:02;10.40;99.90
29403;DHT22;16382;59.942;30.472;2022-09-21T00:32:32;10.40;99.90
29403;DHT22;16382;59.942;30.472;2022-09-21T00:34:59;10.50;99.90
29403;DHT22;16382;59.942;30.472;2022-09-21T00:37:30;10.50;99.90
29403;DHT22;16382;59.942;30.472;2022-09-21T00:39:57;10.50;99.90
29403;DHT22;16382;59.942;30.472;2022-09-21T00:42:25;10.60;99.90
29403;DHT22;16382;59.942;30.472;2022-09-21T00:44:53;10.50;99.90
29403;DHT22;16382;59.942;30.472;2022-09-21T00:47:22;10.50;99.90
29403;DHT22;16382;59.942;30.472;2022-09-21T00:49:51;10.60;99.90
29403;DHT22;16382;59.942;30.472;2022-09-21T00:52:20;10.60;99.90
29403;DHT22;16382;59.942;30.472;2022-09-21T00:54:51;10.60;99.90
29403;DHT22;16382;59.942;30.472;2022-09-21T00:57:21;10.70;99.90
29403;DHT22;16382;59.942;30.472;2022-09-21T00:59:51;10.70;99.90
29403;DHT22;16382;59.942;30.472;2022-09-21T01:02:20;10.70;99.90
29403;DHT22;16382;59.942;30.472;2022-09-21T01:04:48;10.70;99.90
29403;DHT22;16382;59.942;30.472;2022-09-21T01:07:21;10.60;99.90
29403;DHT22;16382;59.942;30.472;2022-09-21T01:09:51;10.70;99.90
29403;DHT22;16382;59.942;30.472;2022-09-21T01:12:24;10.70;99.90
29403;DHT22;16382;59.942;30.472;2022-09-21T01:15:09;10.60;99.90
29403;DHT22;16382;59.942;30.472;2022-09-21T01:17:43;10.60;99.90
29403;DHT22;16382;59.942;30.472;2022-09-21T01:20:29;10.60;99.90
29403;DHT22;16382;59.942;30.472;2022-09-21T01:23:20;10.60;99.90
29403;DHT22;16382;59.942;30.472;2022-09-21T01:26:01;10.60;99.90
29403;DHT22;16382;59.942;30.472;2022-09-21T01:28:35;10.50;99.90
29403;DHT22;16382;59.942;30.472;2022-09-21T01:31:27;10.50;99.90
29403;DHT22;16382;59.942;30.472;2022-09-21T01:34:00;10.40;99.90
29403;DHT22;16382;59.942;30.472;2022-09-21T01:36:30;10.40;99.90
29403;DHT22;16382;59.942;30.472;2022-09-21T01:39:02;10.30;99.90
29403;DHT22;16382;59.942;30.472;2022-09-21T01:41:31;10.20;99.90
29403;DHT22;16382;59.942;30.472;2022-09-21T01:44:03;10.20;99.90
29403;DHT22;16382;59.942;30.472;2022-09-21T01:46:33;10.10;99.90
29403;DHT22;16382;59.942;30.472;2022-09-21T01:49:02;10.10;99.90
29403;DHT22;16382;59.942;30.472;2022-09-21T01:51:31;10.00;99.90
29403;DHT22;16382;59.942;30.472;2022-09-21T01:54:01;10.00;99.90
29403;DHT22;16382;59.942;30.472;2022-09-21T01:56:31;9.90;99.90
29403;DHT22;16382;59.942;30.472;2022-09-21T01:59:05;9.90;99.90
29403;DHT22;16382;59.942;30.472;2022-09-21T02:01:34;9.90;99.90
29403;DHT22;16382;59.942;30.472;2022-09-21T02:04:07;9.80;99.90
29403;DHT22;16382;59.942;30.472;2022-09-21T02:06:35;9.80;99.90
29403;DHT22;16382;59.942;30.472;2022-09-21T02:09:05;9.80;99.90
29403;DHT22;16382;59.942;30.472;2022-09-21T02:11:32;9.70;99.90
29403;DHT22;16382;59.942;30.472;2022-09-21T02:13:59;9.70;99.90
29403;DHT22;16382;59.942;30.472;2022-09-21T02:16:33;9.60;99.90
29403;DHT22;16382;59.942;30.472;2022-09-21T02:19:11;9.60;99.90
29403;DHT22;16382;59.942;30.472;2022-09-21T02:21:45;9.60;99.90
29403;DHT22;16382;59.942;30.472;2022-09-21T02:24:20;9.50;99.90
29403;DHT22;16382;59.942;30.472;2022-09-21T02:26:53;9.50;99.90
29403;DHT22;16382;59.942;30.472;2022-09-21T02:29:27;9.50;99.90
29403;DHT22;16382;59.942;30.472;2022-09-21T02:32:01;9.50;99.90
29403;DHT22;16382;59.942;30.472;2022-09-21T02:34:33;9.50;99.90
29403;DHT22;16382;59.942;30.472;2022-09-21T02:37:04;9.60;99.90
29403;DHT22;16382;59.942;30.472;2022-09-21T02:39:38;9.60;99.90
29403;DHT22;16382;59.942;30.472;2022-09-21T02:42:10;9.60;99.90
29403;DHT22;16382;59.942;30.472;2022-09-21T02:44:41;9.60;99.90
29403;DHT22;16382;59.942;30.472;2022-09-21T02:47:15;9.60;99.90
29403;DHT22;16382;59.942;30.472;2022-09-21T02:49:45;9.60;99.90
29403;DHT22;16382;59.942;30.472;2022-09-21T02:52:16;9.70;99.90
29403;DHT22;16382;59.942;30.472;2022-09-21T02:54:45;9.70;99.90
29403;DHT22;16382;59.942;30.472;2022-09-21T02:57:14;9.70;99.90
29403;DHT22;16382;59.942;30.472;2022-09-21T02:59:43;9.70;99.90
29403;DHT22;16382;59.942;30.472;2022-09-21T03:02:10;9.70;99.90
29403;DHT22;16382;59.942;30.472;2022-09-21T03:04:39;9.80;99.90
29403;DHT22;16382;59.942;30.472;2022-09-21T03:07:07;9.80;99.90
29403;DHT22;16382;59.942;30.472;2022-09-21T03:09:34;9.80;99.90
29403;DHT22;16382;59.942;30.472;2022-09-21T03:12:01;9.90;99.90
29403;DHT22;16382;59.942;30.472;2022-09-21T03:14:28;9.90;99.90
29403;DHT22;16382;59.942;30.472;2022-09-21T03:16:57;9.90;99.90
29403;DHT22;16382;59.942;30.472;2022-09-21T03:19:25;9.90;99.90
29403;DHT22;16382;59.942;30.472;2022-09-21T03:21:54;9.90;99.90
29403;DHT22;16382;59.942;30.472;2022-09-21T03:24:21;10.00;99.90
29403;DHT22;16382;59.942;30.472;2022-09-21T03:27:02;10.00;99.90
29403;DHT22;16382;59.942;30.472;2022-09-21T03:29:29;10.10;99.90
29403;DHT22;16382;59.942;30.472;2022-09-21T03:31:57;10.10;99.90
29403;DHT22;16382;59.942;30.472;2022-09-21T03:34:24;10.20;99.90
29403;DHT22;16382;59.942;30.472;2022-09-21T03:36:51;10.20;99.90
29403;DHT22;16382;59.942;30.472;2022-09-21T03:39:20;10.20;99.90
29403;DHT22;16382;59.942;30.472;2022-09-21T03:41:47;10.30;99.90
29403;DHT22;16382;59.942;30.472;2022-09-21T03:44:15;10.30;99.90
29403;DHT22;16382;59.942;30.472;2022-09-21T03:46:42;10.30;99.90
29403;DHT22;16382;59.942;30.472;2022-09-21T03:49:10;10.40;99.90
29403;DHT22;16382;59.942;30.472;2022-09-21T03:51:37;10.40;99.90
29403;DHT22;16382;59.942;30.472;2022-09-21T03:54:06;10.40;99.90
29403;DHT22;16382;59.942;30.472;2022-09-21T03:56:33;10.50;99.90
29403;DHT22;16382;59.942;30.472;2022-09-21T03:59:01;10.50;99.90
29403;DHT22;16382;59.942;30.472;2022-09-21T04:01:28;10.50;99.90
29403;DHT22;16382;59.942;30.472;2022-09-21T04:03:55;10.50;99.90
29403;DHT22;16382;59.942;30.472;2022-09-21T04:06:23;10.60;99.90
29403;DHT22;16382;59.942;30.472;2022-09-21T04:08:50;10.60;99.90
29403;DHT22;16382;59.942;30.472;2022-09-21T04:11:20;10.60;99.90
29403;DHT22;16382;59.942;30.472;2022-09-21T04:13:48;10.70;99.90
29403;DHT22;16382;59.942;30.472;2022-09-21T04:16:16;10.70;99.90
29403;DHT22;16382;59.942;30.472;2022-09-21T04:18:44;10.70;99.90
29403;DHT22;16382;59.942;30.472;2022-09-21T04:21:15;10.80;99.90
29403;DHT22;16382;59.942;30.472;2022-09-21T04:23:42;10.80;99.90
29403;DHT22;16382;59.942;30.472;2022-09-21T04:26:17;10.80;99.90
29403;DHT22;16382;59.942;30.472;2022-09-21T04:28:47;10.80;99.90
29403;DHT22;16382;59.942;30.472;2022-09-21T04:31:14;10.90;99.90
29403;DHT22;16382;59.942;30.472;2022-09-21T04:33:41;10.90;99.90
29403;DHT22;16382;59.942;30.472;2022-09-21T04:36:08;11.00;99.90
29403;DHT22;16382;59.942;30.472;2022-09-21T04:38:39;11.00;99.90
29403;DHT22;16382;59.942;30.472;2022-09-21T04:41:15;11.10;99.90
29403;DHT22;16382;59.942;30.472;2022-09-21T04:43:43;11.10;99.90
29403;DHT22;16382;59.942;30.472;2022-09-21T04:46:13;11.10;99.90
29403;DHT22;16382;59.942;30.472;2022-09-21T04:48:41;11.10;99.90
29403;DHT22;16382;59.942;30.472;2022-09-21T04:51:09;11.20;99.90
29403;DHT22;16382;59.942;30.472;2022-09-21T04:53:37;11.20;99.90
29403;DHT22;16382;59.942;30.472;2022-09-21T04:56:06;11.10;99.90
29403;DHT22;16382;59.942;30.472;2022-09-21T04:58:36;11.20;99.90
29403;DHT22;16382;59.942;30.472;2022-09-21T05:01:03;11.20;99.90
29403;DHT22;16382;59.942;30.472;2022-09-21T05:03:33;11.20;99.90
29403;DHT22;16382;59.942;30.472;2022-09-21T05:06:00;11.30;99.90
29403;DHT22;16382;59.942;30.472;2022-09-21T05:08:28;11.30;99.90
29403;DHT22;16382;59.942;30.472;2022-09-21T05:11:14;11.30;99.90
29403;DHT22;16382;59.942;30.472;2022-09-21T05:13:43;11.40;99.90
29403;DHT22;16382;59.942;30.472;2022-09-21T05:16:10;11.40;99.90
29403;DHT22;16382;59.942;30.472;2022-09-21T05:18:39;11.40;99.90
29403;DHT22;16382;59.942;30.472;2022-09-21T05:21:06;11.50;99.90
29403;DHT22;16382;59.942;30.472;2022-09-21T05:23:33;11.50;99.90
29403;DHT22;16382;59.942;30.472;2022-09-21T05:26:00;11.50;99.90
29403;DHT22;16382;59.942;30.472;2022-09-21T05:28:28;11.50;99.90
29403;DHT22;16382;59.942;30.472;2022-09-21T05:30:56;11.50;99.90
29403;DHT22;16382;59.942;30.472;2022-09-21T05:33:27;11.60;99.90
29403;DHT22;16382;59.942;30.472;2022-09-21T05:36:00;11.60;99.90
29403;DHT22;16382;59.942;30.472;2022-09-21T05:38:32;11.70;99.90
29403;DHT22;16382;59.942;30.472;2022-09-21T05:41:00;11.70;99.90
29403;DHT22;16382;59.942;30.472;2022-09-21T05:43:28;11.80;99.90
29403;DHT22;16382;59.942;30.472;2022-09-21T05:45:57;12.00;99.90
29403;DHT22;16382;59.942;30.472;2022-09-21T05:48:30;12.10;99.90
29403;DHT22;16382;59.942;30.472;2022-09-21T05:51:04;12.20;99.90
29403;DHT22;16382;59.942;30.472;2022-09-21T05:53:39;12.40;99.90
29403;DHT22;16382;59.942;30.472;2022-09-21T05:56:17;12.60;99.90
29403;DHT22;16382;59.942;30.472;2022-09-21T05:58:52;12.70;99.90
29403;DHT22;16382;59.942;30.472;2022-09-21T06:01:26;12.80;99.90
29403;DHT22;16382;59.942;30.472;2022-09-21T06:04:03;13.00;99.90
29403;DHT22;16382;59.942;30.472;2022-09-21T06:06:32;13.10;99.90
29403;DHT22;16382;59.942;30.472;2022-09-21T06:08:59;13.20;99.90
29403;DHT22;16382;59.942;30.472;2022-09-21T06:11:26;13.30;99.90
29403;DHT22;16382;59.942;30.472;2022-09-21T06:13:53;13.30;99.90
29403;DHT22;16382;59.942;30.472;2022-09-21T06:16:21;13.30;99.90
29403;DHT22;16382;59.942;30.472;2022-09-21T06:18:48;13.30;99.90
29403;DHT22;16382;59.942;30.472;2022-09-21T06:21:15;13.30;99.90
29403;DHT22;16382;59.942;30.472;2022-09-21T06:23:44;13.30;99.90
29403;DHT22;16382;59.942;30.472;2022-09-21T06:26:11;13.30;99.90
29403;DHT22;16382;59.942;30.472;2022-09-21T06:28:38;13.30;99.90
29403;DHT22;16382;59.942;30.472;2022-09-21T06:31:05;13.30;99.90
29403;DHT22;16382;59.942;30.472;2022-09-21T06:33:32;13.30;99.90
29403;DHT22;16382;59.942;30.472;2022-09-21T06:36:02;13.30;99.90
29403;DHT22;16382;59.942;30.472;2022-09-21T06:38:29;13.30;99.90
29403;DHT22;16382;59.942;30.472;2022-09-21T06:41:01;13.30;99.90
29403;DHT22;16382;59.942;30.472;2022-09-21T06:43:28;13.30;99.90
29403;DHT22;16382;59.942;30.472;2022-09-21T06:45:56;13.40;99.90
29403;DHT22;16382;59.942;30.472;2022-09-21T06:48:24;13.40;99.90
29403;DHT22;16382;59.942;30.472;2022-09-21T06:50:55;13.50;99.90
29403;DHT22;16382;59.942;30.472;2022-09-21T06:53:23;13.50;99.90
29403;DHT22;16382;59.942;30.472;2022-09-21T06:55:50;13.60;99.90
29403;DHT22;16382;59.942;30.472;2022-09-21T06:58:19;13.70;99.90
29403;DHT22;16382;59.942;30.472;2022-09-21T07:00:46;13.80;99.90
29403;DHT22;16382;59.942;30.472;2022-09-21T07:03:13;13.90;99.90
29403;DHT22;16382;59.942;30.472;2022-09-21T07:05:44;14.00;99.90
29403;DHT22;16382;59.942;30.472;2022-09-21T07:08:11;14.10;99.90
29403;DHT22;16382;59.942;30.472;2022-09-21T07:10:39;14.10;99.90
29403;DHT22;16382;59.942;30.472;2022-09-21T07:13:06;14.10;99.90
29403;DHT22;16382;59.942;30.472;2022-09-21T07:15:36;14.00;99.90
29403;DHT22;16382;59.942;30.472;2022-09-21T07:18:09;14.10;99.90
29403;DHT22;16382;59.942;30.472;2022-09-21T07:20:36;14.20;99.90
29403;DHT22;16382;59.942;30.472;2022-09-21T07:23:08;14.90;99.90
29403;DHT22;16382;59.942;30.472;2022-09-21T07:25:36;16.30;99.90
29403;DHT22;16382;59.942;30.472;2022-09-21T07:28:20;16.90;99.90
29403;DHT22;16382;59.942;30.472;2022-09-21T07:30:49;17.30;99.90
29403;DHT22;16382;59.942;30.472;2022-09-21T07:33:16;17.20;99.90
29403;DHT22;16382;59.942;30.472;2022-09-21T07:35:49;16.90;99.90
29403;DHT22;16382;59.942;30.472;2022-09-21T07:38:16;16.50;99.90
29403;DHT22;16382;59.942;30.472;2022-09-21T07:40:44;16.20;99.90
29403;DHT22;16382;59.942;30.472;2022-09-21T07:43:35;15.90;99.90
29403;DHT22;16382;59.942;30.472;2022-09-21T07:46:07;15.80;99.90
29403;DHT22;16382;59.942;30.472;2022-09-21T07:48:35;15.80;99.90
29403;DHT22;16382;59.942;30.472;2022-09-21T07:51:02;15.80;99.90
29403;DHT22;16382;59.942;30.472;2022-09-21T07:53:30;16.00;99.90
29403;DHT22;16382;59.942;30.472;2022-09-21T07:56:01;16.00;99.90
29403;DHT22;16382;59.942;30.472;2022-09-21T07:58:29;16.20;99.90
29403;DHT22;16382;59.942;30.472;2022-09-21T08:01:16;17.30;99.90
29403;DHT22;16382;59.942;30.472;2022-09-21T08:03:43;19.20;99.90
29403;DHT22;16382;59.942;30.472;2022-09-21T08:06:10;20.00;99.90
29403;DHT22;16382;59.942;30.472;2022-09-21T08:08:37;20.60;99.90
29403;DHT22;16382;59.942;30.472;2022-09-21T08:11:06;21.00;99.90
29403;DHT22;16382;59.942;30.472;2022-09-21T08:13:36;21.80;99.90
29403;DHT22;16382;59.942;30.472;2022-09-21T08:16:03;22.10;99.90
29403;DHT22;16382;59.942;30.472;2022-09-21T08:18:34;23.10;99.90
29403;DHT22;16382;59.942;30.472;2022-09-21T08:21:03;23.50;99.90
29403;DHT22;16382;59.942;30.472;2022-09-21T08:23:30;22.70;99.90
29403;DHT22;16382;59.942;30.472;2022-09-21T08:25:57;21.60;99.90
29403;DHT22;16382;59.942;30.472;2022-09-21T08:28:26;21.20;99.90
29403;DHT22;16382;59.942;30.472;2022-09-21T08:30:53;21.70;99.90
29403;DHT22;16382;59.942;30.472;2022-09-21T08:33:20;22.60;99.90
29403;DHT22;16382;59.942;30.472;2022-09-21T08:35:54;23.00;99.90
29403;DHT22;16382;59.942;30.472;2022-09-21T08:38:22;23.80;99.90
29403;DHT22;16382;59.942;30.472;2022-09-21T08:40:50;24.60;98.50
29403;DHT22;16382;59.942;30.472;2022-09-21T08:43:20;25.40;96.40
29403;DHT22;16382;59.942;30.472;2022-09-21T08:45:51;25.90;92.70
29403;DHT22;16382;59.942;30.472;2022-09-21T08:48:19;24.90;92.00
29403;DHT22;16382;59.942;30.472;2022-09-21T08:50:48;23.60;93.10
29403;DHT22;16382;59.942;30.472;2022-09-21T08:53:19;22.10;94.80
29403;DHT22;16382;59.942;30.472;2022-09-21T08:55:48;20.90;98.00
29403;DHT22;16382;59.942;30.472;2022-09-21T08:58:20;19.90;99.90
29403;DHT22;16382;59.942;30.472;2022-09-21T09:00:49;19.30;99.90
29403;DHT22;16382;59.942;30.472;2022-09-21T09:03:28;19.00;99.90
29403;DHT22;16382;59.942;30.472;2022-09-21T09:06:06;18.70;99.90
29403;DHT22;16382;59.942;30.472;2022-09-21T09:11:43;18.80;99.90
29403;DHT22;16382;59.942;30.472;2022-09-21T09:14:36;18.50;99.90
29403;DHT22;16382;59.942;30.472;2022-09-21T09:17:16;18.60;99.90
29403;DHT22;16382;59.942;30.472;2022-09-21T09:19:54;18.60;99.90
29403;DHT22;16382;59.942;30.472;2022-09-21T09:22:24;18.40;99.90
29403;DHT22;16382;59.942;30.472;2022-09-21T09:24:57;18.30;99.90
29403;DHT22;16382;59.942;30.472;2022-09-21T09:27:27;18.20;99.90
29403;DHT22;16382;59.942;30.472;2022-09-21T09:29:57;18.10;99.90
29403;DHT22;16382;59.942;30.472;2022-09-21T09:32:39;18.10;99.90
29403;DHT22;16382;59.942;30.472;2022-09-21T09:35:14;18.10;99.90
29403;DHT22;16382;59.942;30.472;2022-09-21T09:37:44;18.20;99.90
29403;DHT22;16382;59.942;30.472;2022-09-21T09:40:17;18.40;99.90
29403;DHT22;16382;59.942;30.472;2022-09-21T09:42:49;18.70;99.90
29403;DHT22;16382;59.942;30.472;2022-09-21T09:45:33;18.90;99.90
29403;DHT22;16382;59.942;30.472;2022-09-21T09:48:17;19.30;99.90
29403;DHT22;16382;59.942;30.472;2022-09-21T09:50:52;19.70;99.90
29403;DHT22;16382;59.942;30.472;2022-09-21T09:53:19;20.00;99.90
29403;DHT22;16382;59.942;30.472;2022-09-21T09:55:55;20.00;99.90
29403;DHT22;16382;59.942;30.472;2022-09-21T09:58:51;19.70;99.90
29403;DHT22;16382;59.942;30.472;2022-09-21T10:01:38;19.20;99.90
29403;DHT22;16382;59.942;30.472;2022-09-21T10:04:08;18.90;99.90
29403;DHT22;16382;59.942;30.472;2022-09-21T10:06:36;19.00;99.90
29403;DHT22;16382;59.942;30.472;2022-09-21T10:09:17;18.90;99.90
29403;DHT22;16382;59.942;30.472;2022-09-21T10:11:49;18.80;99.90
29403;DHT22;16382;59.942;30.472;2022-09-21T10:14:18;18.80;99.90
29403;DHT22;16382;59.942;30.472;2022-09-21T10:16:47;18.80;99.90
29403;DHT22;16382;59.942;30.472;2022-09-21T10:19:19;18.90;99.90
29403;DHT22;16382;59.942;30.472;2022-09-21T10:21:47;18.80;99.90
29403;DHT22;16382;59.942;30.472;2022-09-21T10:24:21;18.80;99.90
29403;DHT22;16382;59.942;30.472;2022-09-21T10:26:52;18.60;99.90
29403;DHT22;16382;59.942;30.472;2022-09-21T10:29:41;18.40;99.90
29403;DHT22;16382;59.942;30.472;2022-09-21T10:35:14;17.90;99.90
29403;DHT22;16382;59.942;30.472;2022-09-21T10:37:44;17.60;99.90
29403;DHT22;16382;59.942;30.472;2022-09-21T10:40:26;17.40;99.90
29403;DHT22;16382;59.942;30.472;2022-09-21T10:42:57;17.20;99.90
29403;DHT22;16382;59.942;30.472;2022-09-21T10:45:25;17.10;99.90
29403;DHT22;16382;59.942;30.472;2022-09-21T10:47:54;17.00;99.90
29403;DHT22;16382;59.942;30.472;2022-09-21T10:50:24;17.00;99.90
29403;DHT22;16382;59.942;30.472;2022-09-21T10:52:54;16.90;99.90
29403;DHT22;16382;59.942;30.472;2022-09-21T10:55:24;16.80;99.90
29403;DHT22;16382;59.942;30.472;2022-09-21T10:57:52;16.80;99.90
29403;DHT22;16382;59.942;30.472;2022-09-21T11:00:31;16.90;99.90
29403;DHT22;16382;59.942;30.472;2022-09-21T11:03:24;16.90;99.90
29403;DHT22;16382;59.942;30.472;2022-09-21T11:05:56;17.00;99.90
29403;DHT22;16382;59.942;30.472;2022-09-21T11:08:31;17.10;99.90
29403;DHT22;16382;59.942;30.472;2022-09-21T11:11:12;17.20;99.90
29403;DHT22;16382;59.942;30.472;2022-09-21T11:13:48;17.40;99.90
29403;DHT22;16382;59.942;30.472;2022-09-21T11:16:23;17.70;99.90
29403;DHT22;16382;59.942;30.472;2022-09-21T11:18:57;17.80;99.90
29403;DHT22;16382;59.942;30.472;2022-09-21T11:21:29;17.80;99.90
29403;DHT22;16382;59.942;30.472;2022-09-21T11:24:02;17.90;99.90
29403;DHT22;16382;59.942;30.472;2022-09-21T11:26:34;18.00;99.90
29403;DHT22;16382;59.942;30.472;2022-09-21T11:29:07;18.10;99.90
29403;DHT22;16382;59.942;30.472;2022-09-21T11:31:47;18.20;99.90
29403;DHT22;16382;59.942;30.472;2022-09-21T11:34:22;18.40;99.90
29403;DHT22;16382;59.942;30.472;2022-09-21T11:37:12;18.80;99.90
29403;DHT22;16382;59.942;30.472;2022-09-21T11:39:50;18.90;99.90
29403;DHT22;16382;59.942;30.472;2022-09-21T11:42:37;18.80;99.90
29403;DHT22;16382;59.942;30.472;2022-09-21T11:45:16;18.70;99.90
29403;DHT22;16382;59.942;30.472;2022-09-21T11:47:57;18.70;99.90
29403;DHT22;16382;59.942;30.472;2022-09-21T11:50:46;18.60;99.90
29403;DHT22;16382;59.942;30.472;2022-09-21T11:53:21;18.50;99.90
29403;DHT22;16382;59.942;30.472;2022-09-21T11:56:02;18.50;99.90
29403;DHT22;16382;59.942;30.472;2022-09-21T11:58:47;18.50;99.90
29403;DHT22;16382;59.942;30.472;2022-09-21T12:01:22;18.30;99.90
29403;DHT22;16382;59.942;30.472;2022-09-21T12:04:03;18.20;99.90
29403;DHT22;16382;59.942;30.472;2022-09-21T12:06:41;18.00;99.90
29403;DHT22;16382;59.942;30.472;2022-09-21T12:09:17;17.90;99.90
29403;DHT22;16382;59.942;30.472;2022-09-21T12:11:56;17.80;99.90
29403;DHT22;16382;59.942;30.472;2022-09-21T12:14:29;17.80;99.90
29403;DHT22;16382;59.942;30.472;2022-09-21T12:17:00;17.80;99.90
29403;DHT22;16382;59.942;30.472;2022-09-21T12:19:49;17.80;99.90
29403;DHT22;16382;59.942;30.472;2022-09-21T12:22:25;17.70;99.90
29403;DHT22;16382;59.942;30.472;2022-09-21T12:24:55;17.60;99.90
29403;DHT22;16382;59.942;30.472;2022-09-21T12:27:27;17.60;99.90
29403;DHT22;16382;59.942;30.472;2022-09-21T12:29:57;17.60;99.90
29403;DHT22;16382;59.942;30.472;2022-09-21T12:32:35;17.60;99.90
29403;DHT22;16382;59.942;30.472;2022-09-21T12:35:12;17.50;99.90
29403;DHT22;16382;59.942;30.472;2022-09-21T12:37:41;17.50;99.90
29403;DHT22;16382;59.942;30.472;2022-09-21T12:40:14;17.40;99.90
29403;DHT22;16382;59.942;30.472;2022-09-21T12:42:48;17.30;99.90
29403;DHT22;16382;59.942;30.472;2022-09-21T12:45:18;17.30;99.90
29403;DHT22;16382;59.942;30.472;2022-09-21T12:47:51;17.30;99.90
29403;DHT22;16382;59.942;30.472;2022-09-21T12:50:25;17.20;99.90
29403;DHT22;16382;59.942;30.472;2022-09-21T12:52:54;17.20;99.90
29403;DHT22;16382;59.942;30.472;2022-09-21T12:55:27;17.20;99.90
29403;DHT22;16382;59.942;30.472;2022-09-21T12:58:03;17.20;99.90
29403;DHT22;16382;59.942;30.472;2022-09-21T13:00:36;17.20;99.90
29403;DHT22;16382;59.942;30.472;2022-09-21T13:03:09;17.70;99.90
29403;DHT22;16382;59.942;30.472;2022-09-21T13:05:44;18.50;99.90
29403;DHT22;16382;59.942;30.472;2022-09-21T13:08:23;19.20;99.90
29403;DHT22;16382;59.942;30.472;2022-09-21T13:11:01;19.50;99.90
29403;DHT22;16382;59.942;30.472;2022-09-21T13:13:33;19.70;99.90
29403;DHT22;16382;59.942;30.472;2022-09-21T13:16:01;19.90;99.90
29403;DHT22;16382;59.942;30.472;2022-09-21T13:18:30;19.60;99.90
29403;DHT22;16382;59.942;30.472;2022-09-21T13:21:00;19.10;99.90
29403;DHT22;16382;59.942;30.472;2022-09-21T13:23:39;18.50;99.90
29403;DHT22;16382;59.942;30.472;2022-09-21T13:26:07;17.90;99.90
29403;DHT22;16382;59.942;30.472;2022-09-21T13:28:40;17.60;99.90
29403;DHT22;16382;59.942;30.472;2022-09-21T13:31:30;17.30;99.90
29403;DHT22;16382;59.942;30.472;2022-09-21T13:43:20;16.70;99.90
29403;DHT22;16382;59.942;30.472;2022-09-21T13:45:50;16.70;99.90
29403;DHT22;16382;59.942;30.472;2022-09-21T13:48:20;16.70;99.90
29403;DHT22;16382;59.942;30.472;2022-09-21T13:50:54;16.60;99.90
29403;DHT22;16382;59.942;30.472;2022-09-21T13:53:24;16.50;99.90
29403;DHT22;16382;59.942;30.472;2022-09-21T13:55:54;16.40;99.90
29403;DHT22;16382;59.942;30.472;2022-09-21T13:58:28;16.30;99.90
29403;DHT22;16382;59.942;30.472;2022-09-21T14:00:57;16.30;99.90
29403;DHT22;16382;59.942;30.472;2022-09-21T14:03:27;16.30;99.90
29403;DHT22;16382;59.942;30.472;2022-09-21T14:06:00;16.30;99.90
29403;DHT22;16382;59.942;30.472;2022-09-21T14:08:30;16.30;99.90
29403;DHT22;16382;59.942;30.472;2022-09-21T14:11:00;16.20;99.90
29403;DHT22;16382;59.942;30.472;2022-09-21T14:13:33;16.10;99.90
29403;DHT22;16382;59.942;30.472;2022-09-21T14:18:51;15.90;99.90
29403;DHT22;16382;59.942;30.472;2022-09-21T14:21:19;15.80;99.90
29403;DHT22;16382;59.942;30.472;2022-09-21T14:24:08;15.80;99.90
29403;DHT22;16382;59.942;30.472;2022-09-21T14:26:51;15.70;99.90
29403;DHT22;16382;59.942;30.472;2022-09-21T14:29:23;15.60;99.90
29403;DHT22;16382;59.942;30.472;2022-09-21T14:31:55;15.50;99.90
29403;DHT22;16382;59.942;30.472;2022-09-21T14:34:25;15.30;99.90
29403;DHT22;16382;59.942;30.472;2022-09-21T14:36:56;15.30;99.90
29403;DHT22;16382;59.942;30.472;2022-09-21T14:39:29;15.10;99.90
29403;DHT22;16382;59.942;30.472;2022-09-21T14:42:00;15.00;99.90
29403;DHT22;16382;59.942;30.472;2022-09-21T14:44:31;14.90;99.90
29403;DHT22;16382;59.942;30.472;2022-09-21T14:47:04;14.80;99.90
29403;DHT22;16382;59.942;30.472;2022-09-21T14:49:46;14.60;99.90
29403;DHT22;16382;59.942;30.472;2022-09-21T14:52:25;14.50;99.90
29403;DHT22;16382;59.942;30.472;2022-09-21T14:54:58;14.50;99.90
29403;DHT22;16382;59.942;30.472;2022-09-21T14:57:36;14.40;99.90
29403;DHT22;16382;59.942;30.472;2022-09-21T15:00:16;14.30;99.90
29403;DHT22;16382;59.942;30.472;2022-09-21T15:02:52;14.30;99.90
29403;DHT22;16382;59.942;30.472;2022-09-21T15:05:29;14.20;99.90
29403;DHT22;16382;59.942;30.472;2022-09-21T15:08:16;14.10;99.90
29403;DHT22;16382;59.942;30.472;2022-09-21T15:11:11;14.10;99.90
29403;DHT22;16382;59.942;30.472;2022-09-21T15:14:01;14.00;99.90
29403;DHT22;16382;59.942;30.472;2022-09-21T15:16:39;13.90;99.90
29403;DHT22;16382;59.942;30.472;2022-09-21T15:19:10;13.80;99.90
29403;DHT22;16382;59.942;30.472;2022-09-21T15:21:39;13.80;99.90
29403;DHT22;16382;59.942;30.472;2022-09-21T15:24:16;13.70;99.90
29403;DHT22;16382;59.942;30.472;2022-09-21T15:26:47;13.70;99.90
29403;DHT22;16382;59.942;30.472;2022-09-21T15:29:18;13.60;99.90
29403;DHT22;16382;59.942;30.472;2022-09-21T15:31:51;13.60;99.90
29403;DHT22;16382;59.942;30.472;2022-09-21T15:34:19;13.50;99.90
29403;DHT22;16382;59.942;30.472;2022-09-21T15:36:48;13.40;99.90
29403;DHT22;16382;59.942;30.472;2022-09-21T15:39:20;13.40;99.90
29403;DHT22;16382;59.942;30.472;2022-09-21T15:42:13;13.30;99.90
29403;DHT22;16382;59.942;30.472;2022-09-21T15:44:45;13.30;99.90
29403;DHT22;16382;59.942;30.472;2022-09-21T15:47:15;13.20;99.90
29403;DHT22;16382;59.942;30.472;2022-09-21T15:49:44;13.10;99.90
29403;DHT22;16382;59.942;30.472;2022-09-21T15:52:15;13.10;99.90
29403;DHT22;16382;59.942;30.472;2022-09-21T15:54:50;13.10;99.90
29403;DHT22;16382;59.942;30.472;2022-09-21T15:57:21;13.00;99.90
29403;DHT22;16382;59.942;30.472;2022-09-21T15:59:50;13.00;99.90
29403;DHT22;16382;59.942;30.472;2022-09-21T16:02:20;13.00;99.90
29403;DHT22;16382;59.942;30.472;2022-09-21T16:04:49;12.90;99.90